Tuesday, May 21, 2019, 12:35 PM EDT
Back to Local

KLWM, Lawrence Municipal Airport

Location: North Andover, MA, United States Lat: 42.717
Local Time: 12:35 PM EDT (16:35 GMT) Lon: -71.133
Time Zone: US/Eastern Elev: 147 ft

Show me the last for .
Show Decoded

2019-05-21 11:54 METAR KLWM 211554Z 30016G26KT 10SM SCT060 17/03 A2977 RMK AO2 PK WND 30026/1504
                 SLP081 T01720028 =
2019-05-21 10:54 METAR KLWM 211454Z 31013G24KT 10SM CLR 16/03 A2977 RMK AO2 PK WND 31029/1401
                 SLP080 T01610028 51004 =
2019-05-21 09:54 METAR KLWM 211354Z 28014G29KT 10SM BKN050 14/03 A2976 RMK AO2 PK WND 28030/1340
                 SLP077 T01440028 =
2019-05-21 08:54 METAR KLWM 211254Z 31014G24KT 10SM BKN049 BKN060 14/04 A2978 RMK AO2 SLP082
                 T01440039 =
2019-05-21 07:54 METAR KLWM 211154Z 28014G22KT 10SM SCT048 14/04 A2976 RMK AO2 SLP075 T01440044
                 10178 20128 53013 =
2019-05-21 06:54 METAR KLWM 211054Z 27016G23KT 10SM CLR 14/06 A2973 RMK AO2 SLP068 T01390056 =
2019-05-21 05:54 METAR KLWM 210954Z AUTO 27009KT 10SM CLR 13/06 A2974 RMK AO2 SLP069 T01280056 =
2019-05-21 04:54 METAR KLWM 210854Z AUTO 29012G19KT 10SM CLR 14/06 A2972 RMK AO2 SLP062 T01390056
                 51008 =
2019-05-21 03:54 METAR KLWM 210754Z AUTO 28007G16KT 10SM CLR 15/06 A2971 RMK AO2 SLP061 T01500061
                 =
2019-05-21 02:54 METAR KLWM 210654Z AUTO 27011G18KT 10SM CLR 16/06 A2971 RMK AO2 SLP060 T01610061
                 =
2019-05-21 01:54 METAR KLWM 210554Z AUTO 28009G15KT 10SM SCT070 18/08 A2969 RMK AO2 SLP053 60000
                 T01780078 10250 20178 50007 =
2019-05-21 00:54 METAR KLWM 210454Z AUTO 27014G20KT 10SM BKN060 OVC075 19/09 A2971 RMK AO2 SLP057
                 T01940089 402830183 =
2019-05-20 23:54 METAR KLWM 210354Z AUTO 30009KT 10SM SCT050 BKN070 22/13 A2969 RMK AO2 SLP052
                 T02170128 =
2019-05-20 22:54 METAR KLWM 210254Z AUTO 25006KT 10SM BKN060 BKN080 OVC095 22/19 A2967 RMK AO2
                 RAB36E51 SLP047 P0000 60000 T02170189 53009 =
2019-05-20 21:54 METAR KLWM 210154Z 22006KT 10SM CLR 22/18 A2966 RMK AO2 LTG DSNT SW SLP043
                 T02170183 =
2019-05-20 20:54 METAR KLWM 210054Z 20006KT 10SM CLR 23/17 A2965 RMK AO2 SLP040 T02330172 =
2019-05-20 19:54 METAR KLWM 202354Z 21010KT 10SM SCT070 BKN080 25/17 A2965 RMK AO2 SLP038 60000
                 T02500167 10283 20250 53003 =
2019-05-20 18:54 METAR KLWM 202254Z 23008KT 10SM FEW065 27/15 A2963 RMK AO2 SLP032 T02670150 =
2019-05-20 17:54 METAR KLWM 202154Z 25012G20KT 10SM CLR 27/14 A2962 RMK AO2 SLP030 T02720144 =
2019-05-20 16:54 METAR KLWM 202054Z 25020G25KT 10SM FEW065 SCT080 BKN100 28/15 A2964 RMK AO2 PK
                 WND 25026/2043 SLP034 60000 T02780150 56022 =
2019-05-20 15:54 METAR KLWM 201954Z 25005KT 10SM BKN055 BKN100 27/17 A2965 RMK AO2 RAB37E46
                 SLP040 P0000 T02720172 =
2019-05-20 14:54 METAR KLWM 201854Z 25015G20KT 10SM FEW055 SCT070 BKN110 27/17 A2967 RMK AO2
                 SLP046 T02720167 =
2019-05-20 13:54 METAR KLWM 201754Z 24012G20KT 10SM SCT045 SCT055 28/17 A2970 RMK AO2 SLP056
                 60000 T02780172 10278 20206 58024 =
2019-05-20 12:54 METAR KLWM 201654Z 25009KT 10SM CLR 27/18 A2972 RMK AO2 SLP064 T02670178 =

Support USWX by starting your Amazon purchase here.